createdAt,value
2019-05-05T00:01:28.381Z,99536.11
2019-05-05T00:03:44.563Z,99542.21
2019-05-05T00:05:54.762Z,99554.22
2019-05-05T00:08:02.168Z,99557.52
2019-05-05T00:10:12.029Z,99565.95
2019-05-05T00:12:54.992Z,99571.81
2019-05-05T00:15:22.301Z,99579.93
2019-05-05T00:17:30.213Z,99583.46
2019-05-05T00:19:37.551Z,99593.56
2019-05-05T00:21:44.865Z,99591.73
2019-05-05T00:23:52.285Z,99602.67
2019-05-05T00:26:00.238Z,99600.48
2019-05-05T00:28:07.716Z,99598.81
2019-05-05T00:30:15.512Z,99597.39
2019-05-05T00:32:24.496Z,99604.50
2019-05-05T00:34:32.097Z,99605.04
2019-05-05T00:36:39.468Z,99605.19
2019-05-05T00:38:46.818Z,99602.13
2019-05-05T00:40:55.010Z,99598.40
2019-05-05T00:43:02.526Z,99594.39
2019-05-05T00:45:10.637Z,99598.97
2019-05-05T00:47:29.375Z,99593.74
2019-05-05T00:49:46.376Z,99597.50
2019-05-05T00:51:47.235Z,99598.25
2019-05-05T00:53:55.464Z,99608.73
2019-05-05T00:56:04.982Z,99609.22
2019-05-05T00:58:14.199Z,99626.87
2019-05-05T01:00:44.408Z,99617.60
2019-05-05T01:02:54.184Z,99627.11
2019-05-05T01:05:14.861Z,99627.89
2019-05-05T01:07:22.382Z,99641.47
2019-05-05T01:09:30.883Z,99636.45
2019-05-05T01:11:39.106Z,99645.03
2019-05-05T01:13:46.537Z,99650.33
2019-05-05T01:15:54.262Z,99646.89
2019-05-05T01:18:02.306Z,99657.97
2019-05-05T01:20:09.974Z,99664.53
2019-05-05T01:22:17.284Z,99675.86
2019-05-05T01:24:24.932Z,99682.75
2019-05-05T01:26:32.255Z,99684.42
2019-05-05T01:28:39.642Z,99685.58
2019-05-05T01:30:49.815Z,99689.14
2019-05-05T01:33:31.079Z,99693.20
2019-05-05T01:35:38.600Z,99686.83
2019-05-05T01:38:04.882Z,99686.55
2019-05-05T01:40:30.567Z,99683.72
2019-05-05T01:42:37.939Z,99685.67
2019-05-05T01:44:45.394Z,99693.12
2019-05-05T01:46:54.901Z,99690.55
2019-05-05T01:49:01.750Z,99692.66
2019-05-05T01:51:09.072Z,99688.70
2019-05-05T01:53:16.370Z,99692.30
2019-05-05T01:55:25.230Z,99696.17
2019-05-05T01:57:34.448Z,99687.97
2019-05-05T01:59:42.312Z,99688.05
2019-05-05T02:01:49.628Z,99690.28
2019-05-05T02:03:56.910Z,99702.50
2019-05-05T02:06:05.277Z,99700.45
2019-05-05T02:08:12.759Z,99697.08
2019-05-05T02:10:20.272Z,99703.69
2019-05-05T02:12:27.634Z,99695.25
2019-05-05T02:14:35.303Z,99692.15
2019-05-05T02:16:42.698Z,99689.00
2019-05-05T02:18:49.922Z,99698.83
2019-05-05T02:21:09.159Z,99697.17
2019-05-05T02:23:17.536Z,99691.03
2019-05-05T02:25:25.079Z,99699.00
2019-05-05T02:27:34.345Z,99701.84
2019-05-05T02:29:57.358Z,99687.72
2019-05-05T02:32:38.762Z,99704.41
2019-05-05T02:34:51.686Z,99710.02
2019-05-05T02:36:59.116Z,99722.28
2019-05-05T02:39:10.251Z,99723.36
2019-05-05T02:41:19.102Z,99735.84
2019-05-05T02:43:28.243Z,99733.98
2019-05-05T02:46:18.822Z,99734.22
2019-05-05T02:48:29.054Z,99730.09
2019-05-05T02:51:00.035Z,99733.66
2019-05-05T02:53:05.661Z,99731.09
2019-05-05T02:55:14.670Z,99740.33
2019-05-05T02:57:24.487Z,99743.86
2019-05-05T02:59:54.012Z,99743.48
2019-05-05T03:02:09.267Z,99736.91
2019-05-05T03:04:17.343Z,99741.51
2019-05-05T03:06:24.520Z,99736.41
2019-05-05T03:08:33.577Z,99742.73
2019-05-05T03:10:41.020Z,99742.92
2019-05-05T03:12:48.732Z,99745.00
2019-05-05T03:14:59.213Z,99754.67
2019-05-05T03:17:14.358Z,99764.59
2019-05-05T03:19:25.757Z,99765.28
2019-05-05T03:21:33.622Z,99769.19
2019-05-05T03:23:41.453Z,99769.38
2019-05-05T03:25:49.499Z,99780.70
2019-05-05T03:27:56.808Z,99787.50
2019-05-05T03:30:05.917Z,99791.80
2019-05-05T03:32:16.217Z,99801.20
2019-05-05T03:34:24.092Z,99804.65
2019-05-05T03:36:33.793Z,99807.48
2019-05-05T03:38:40.876Z,99807.80
2019-05-05T03:40:51.053Z,99810.83
2019-05-05T03:43:07.675Z,99818.58
2019-05-05T03:45:44.474Z,99818.89
2019-05-05T03:47:54.105Z,99820.02
2019-05-05T03:50:04.198Z,99819.14
2019-05-05T03:52:10.964Z,99828.68
2019-05-05T03:54:19.099Z,99827.85
2019-05-05T03:56:27.266Z,99830.27
2019-05-05T03:58:34.823Z,99830.10
2019-05-05T04:01:31.234Z,99836.91
2019-05-05T04:03:38.535Z,99846.36
2019-05-05T04:05:55.898Z,99855.80
2019-05-05T04:08:03.954Z,99853.03
2019-05-05T04:10:11.510Z,99860.86
2019-05-05T04:12:18.964Z,99855.70
2019-05-05T04:14:26.367Z,99869.46
2019-05-05T04:16:39.844Z,99875.02
2019-05-05T04:18:51.418Z,99882.88
2019-05-05T04:20:58.715Z,99877.61
2019-05-05T04:23:06.539Z,99881.31
2019-05-05T04:25:13.962Z,99885.97
2019-05-05T04:27:21.357Z,99890.31
2019-05-05T04:29:28.676Z,99892.71
2019-05-05T04:31:36.004Z,99902.37
2019-05-05T04:33:44.470Z,99904.73
2019-05-05T04:35:51.821Z,99904.61
2019-05-05T04:37:59.063Z,99922.94
2019-05-05T04:40:06.431Z,99918.88
2019-05-05T04:42:14.140Z,99920.23
2019-05-05T04:44:23.533Z,99913.84
2019-05-05T04:46:30.473Z,99924.78
2019-05-05T04:48:46.490Z,99928.42
2019-05-05T04:51:18.635Z,99932.45
2019-05-05T04:53:34.792Z,99933.95
2019-05-05T04:55:44.167Z,99938.25
2019-05-05T04:57:51.236Z,99936.44
2019-05-05T04:59:59.466Z,99942.66
2019-05-05T05:02:15.176Z,99941.59
2019-05-05T05:04:30.468Z,99947.78
2019-05-05T05:06:44.396Z,99947.03
2019-05-05T05:08:53.516Z,99952.88
2019-05-05T05:11:00.773Z,99956.20
2019-05-05T05:13:08.534Z,99958.67
2019-05-05T05:15:16.258Z,99962.97
2019-05-05T05:17:33.875Z,99968.75
2019-05-05T05:19:41.163Z,99971.09
2019-05-05T05:21:59.443Z,99981.73
2019-05-05T05:23:57.502Z,99979.60
2019-05-05T05:26:05.197Z,99980.80
2019-05-05T05:28:14.323Z,99983.17
2019-05-05T05:30:24.124Z,99993.86
2019-05-05T05:32:30.994Z,99998.88
2019-05-05T05:34:38.242Z,99997.59
2019-05-05T05:36:45.606Z,100006.16
2019-05-05T05:38:54.846Z,100010.25
2019-05-05T05:41:13.782Z,100021.38
2019-05-05T05:43:27.181Z,100020.16
2019-05-05T05:45:43.631Z,100020.13
2019-05-05T05:48:14.390Z,100018.38
2019-05-05T05:50:41.620Z,100023.45
2019-05-05T05:52:48.927Z,100018.80
2019-05-05T05:54:56.388Z,100015.79
2019-05-05T05:57:04.298Z,100023.64
2019-05-05T05:59:11.750Z,100027.14
2019-05-05T06:01:18.968Z,100037.10
2019-05-05T06:03:26.298Z,100042.98
2019-05-05T06:05:34.348Z,100039.98
2019-05-05T06:07:44.255Z,100041.70
2019-05-05T06:09:51.715Z,100045.12
2019-05-05T06:11:58.998Z,100044.57
2019-05-05T06:14:06.491Z,100039.15
2019-05-05T06:16:14.584Z,100046.87
2019-05-05T06:18:24.139Z,100050.63
2019-05-05T06:20:31.116Z,100059.06
2019-05-05T06:22:38.549Z,100059.26
2019-05-05T06:24:45.888Z,100072.56
2019-05-05T06:26:54.734Z,100074.52
2019-05-05T06:29:04.194Z,100076.98
2019-05-05T06:31:11.249Z,100077.92
2019-05-05T06:33:18.560Z,100084.93
2019-05-05T06:35:26.101Z,100085.13
2019-05-05T06:37:34.243Z,100088.40
2019-05-05T06:39:43.829Z,100086.09
2019-05-05T06:42:09.440Z,100095.91
2019-05-05T06:44:24.771Z,100090.66
2019-05-05T06:46:51.051Z,100092.77
2019-05-05T06:48:58.463Z,100101.39
2019-05-05T06:51:05.866Z,100098.82
2019-05-05T06:53:13.655Z,100105.27
2019-05-05T06:55:21.106Z,100099.82
2019-05-05T06:57:28.354Z,100096.69
2019-05-05T06:59:35.701Z,100094.72
2019-05-05T07:01:44.234Z,100097.15
2019-05-05T07:03:51.623Z,100102.83
2019-05-05T07:05:59.134Z,100108.72
2019-05-05T07:08:06.576Z,100091.53
2019-05-05T07:10:14.247Z,100096.95
2019-05-05T07:12:21.580Z,100098.70
2019-05-05T07:14:28.847Z,100103.81
2019-05-05T07:16:36.286Z,100114.43
2019-05-05T07:18:44.588Z,100113.43
2019-05-05T07:20:54.491Z,100109.55
2019-05-05T07:23:05.010Z,100112.03
2019-05-05T07:25:11.143Z,100113.73
2019-05-05T07:27:18.529Z,100118.85
2019-05-05T07:29:29.083Z,100121.09
2019-05-05T07:31:36.636Z,100121.48
2019-05-05T07:33:44.286Z,100128.89
2019-05-05T07:36:10.816Z,100133.69
2019-05-05T07:38:18.271Z,100129.61
2019-05-05T07:40:25.654Z,100129.09
2019-05-05T07:42:33.623Z,100130.59
2019-05-05T07:44:41.160Z,100130.77
2019-05-05T07:46:48.564Z,100138.66
2019-05-05T07:48:56.042Z,100146.14
2019-05-05T07:51:05.482Z,100152.77
2019-05-05T07:53:17.576Z,100152.87
2019-05-05T07:55:23.765Z,100144.16
2019-05-05T07:57:31.396Z,100151.83
2019-05-05T07:59:38.981Z,100153.34
2019-05-05T08:01:46.885Z,100157.55
2019-05-05T08:03:54.375Z,100159.23
2019-05-05T08:06:03.880Z,100148.89
2019-05-05T08:08:10.940Z,100155.24
2019-05-05T08:10:18.863Z,100157.55
2019-05-05T08:12:27.001Z,100156.81
2019-05-05T08:14:34.679Z,100163.37
2019-05-05T08:16:58.986Z,100165.42
2019-05-05T08:19:24.268Z,100172.73
2019-05-05T08:21:31.900Z,100171.69
2019-05-05T08:23:47.404Z,100176.03
2019-05-05T08:26:26.260Z,100177.46
2019-05-05T08:28:43.486Z,100171.48
2019-05-05T08:31:10.189Z,100178.52
2019-05-05T08:33:17.803Z,100179.67
2019-05-05T08:35:25.386Z,100179.00
2019-05-05T08:37:34.349Z,100173.62
2019-05-05T08:39:41.896Z,100182.86
2019-05-05T08:41:49.425Z,100173.67
2019-05-05T08:43:56.783Z,100176.30
2019-05-05T08:46:04.952Z,100172.95
2019-05-05T08:48:14.249Z,100178.08
2019-05-05T08:50:24.792Z,100182.67
2019-05-05T08:52:31.119Z,100192.52
2019-05-05T08:54:38.729Z,100192.00
2019-05-05T08:56:46.760Z,100190.27
2019-05-05T08:58:54.560Z,100194.16
2019-05-05T09:01:04.196Z,100200.97
2019-05-05T09:03:13.661Z,100204.02
2019-05-05T09:05:20.798Z,100209.80
2019-05-05T09:07:28.592Z,100210.06
2019-05-05T09:09:36.225Z,100197.92
2019-05-05T09:11:43.907Z,100200.81
2019-05-05T09:13:53.495Z,100202.59
2019-05-05T09:16:00.758Z,100194.36
2019-05-05T09:18:08.241Z,100195.06
2019-05-05T09:20:17.067Z,100184.19
2019-05-05T09:22:24.726Z,100183.34
2019-05-05T09:24:48.636Z,100179.14
2019-05-05T09:27:04.209Z,100175.09
2019-05-05T09:29:24.241Z,100180.47
2019-05-05T09:31:31.743Z,100186.00
2019-05-05T09:33:41.410Z,100184.69
2019-05-05T09:35:49.568Z,100183.73
2019-05-05T09:37:57.389Z,100179.55
2019-05-05T09:40:05.307Z,100185.17
2019-05-05T09:42:14.595Z,100180.00
2019-05-05T09:44:24.036Z,100188.27
2019-05-05T09:46:31.124Z,100187.48
2019-05-05T09:48:38.594Z,100182.45
2019-05-05T09:50:46.316Z,100192.90
2019-05-05T09:52:53.900Z,100189.73
2019-05-05T09:55:03.670Z,100173.91
2019-05-05T09:57:10.882Z,100179.47
2019-05-05T09:59:18.483Z,100184.99
2019-05-05T10:01:29.018Z,100193.41
2019-05-05T10:03:36.610Z,100199.38
2019-05-05T10:05:45.636Z,100201.50
2019-05-05T10:07:54.496Z,100198.71
2019-05-05T10:10:02.039Z,100202.47
2019-05-05T10:12:09.946Z,100201.11
2019-05-05T10:14:17.287Z,100208.86
2019-05-05T10:16:24.732Z,100205.22
2019-05-05T10:18:35.516Z,100206.78
2019-05-05T10:20:41.717Z,100202.97
2019-05-05T10:22:49.445Z,100206.25
2019-05-05T10:25:16.435Z,100207.22
2019-05-05T10:27:24.252Z,100208.85
2019-05-05T10:29:31.676Z,100203.52
2019-05-05T10:31:39.055Z,100204.68
2019-05-05T10:33:53.967Z,100207.30
2019-05-05T10:36:01.461Z,100211.59
2019-05-05T10:38:10.772Z,100216.45
2019-05-05T10:40:21.943Z,100218.59
2019-05-05T10:42:46.980Z,100220.08
2019-05-05T10:44:55.101Z,100223.19
2019-05-05T10:47:04.565Z,100219.15
2019-05-05T10:49:13.615Z,100217.29
2019-05-05T10:51:23.685Z,100216.84
2019-05-05T10:53:30.845Z,100220.09
2019-05-05T10:55:38.371Z,100229.77
2019-05-05T10:57:45.802Z,100232.64
2019-05-05T10:59:54.291Z,100237.80
2019-05-05T11:02:01.733Z,100245.92
2019-05-05T11:04:09.464Z,100239.34
2019-05-05T11:06:17.188Z,100241.50
2019-05-05T11:08:25.773Z,100243.06
2019-05-05T11:10:35.346Z,100245.62
2019-05-05T11:12:44.390Z,100247.55
2019-05-05T11:14:52.049Z,100243.07
2019-05-05T11:16:59.931Z,100241.85
2019-05-05T11:19:07.848Z,100249.34
2019-05-05T11:21:15.396Z,100239.77
2019-05-05T11:23:24.793Z,100250.13
2019-05-05T11:25:33.726Z,100249.18
2019-05-05T11:27:43.765Z,100252.29
2019-05-05T11:30:08.827Z,100253.77
2019-05-05T11:32:26.738Z,100250.97
2019-05-05T11:34:34.145Z,100254.02
2019-05-05T11:37:00.467Z,100258.33
2019-05-05T11:39:09.792Z,100258.09
2019-05-05T11:41:17.357Z,100261.50
2019-05-05T11:43:25.537Z,100261.91
2019-05-05T11:45:34.440Z,100262.45
2019-05-05T11:47:44.291Z,100260.73
2019-05-05T11:49:54.586Z,100265.69
2019-05-05T11:52:01.642Z,100268.32
2019-05-05T11:54:09.599Z,100262.34
2019-05-05T11:56:17.122Z,100260.72
2019-05-05T11:58:25.037Z,100260.66
2019-05-05T12:00:34.689Z,100252.58
2019-05-05T12:02:43.927Z,100249.70
2019-05-05T12:04:54.055Z,100255.42
2019-05-05T12:07:03.911Z,100264.59
2019-05-05T12:09:20.590Z,100264.88
2019-05-05T12:11:29.076Z,100261.37
2019-05-05T12:13:36.880Z,100258.75
2019-05-05T12:15:46.212Z,100261.59
2019-05-05T12:17:54.622Z,100255.64
2019-05-05T12:20:04.596Z,100261.11
2019-05-05T12:22:11.883Z,100264.82
2019-05-05T12:24:24.974Z,100272.48
2019-05-05T12:26:49.318Z,100265.39
2019-05-05T12:29:02.254Z,100265.53
2019-05-05T12:31:14.610Z,100264.63
2019-05-05T12:33:23.818Z,100256.33
2019-05-05T12:35:31.368Z,100263.03
2019-05-05T12:37:38.791Z,100275.67
2019-05-05T12:39:46.260Z,100279.02
2019-05-05T12:41:54.344Z,100268.03
2019-05-05T12:44:03.383Z,100275.69
2019-05-05T12:46:21.902Z,100273.81
2019-05-05T12:48:34.463Z,100258.97
2019-05-05T12:50:44.282Z,100259.42
2019-05-05T12:52:54.902Z,100257.98
2019-05-05T12:55:04.946Z,100259.23
2019-05-05T12:57:13.690Z,100259.17
2019-05-05T12:59:24.975Z,100255.06
2019-05-05T13:01:37.297Z,100251.55
2019-05-05T13:03:44.987Z,100254.91
2019-05-05T13:05:53.559Z,100248.99
2019-05-05T13:08:01.182Z,100250.28
2019-05-05T13:10:10.626Z,100262.50
2019-05-05T13:12:17.970Z,100251.48
2019-05-05T13:14:25.428Z,100251.05
2019-05-05T13:16:32.939Z,100254.17
2019-05-05T13:18:40.915Z,100245.48
2019-05-05T13:20:56.355Z,100255.88
2019-05-05T13:23:23.539Z,100258.05
2019-05-05T13:26:08.294Z,100257.86
2019-05-05T13:28:15.866Z,100254.93
2019-05-05T13:30:23.678Z,100254.80
2019-05-05T13:32:31.160Z,100256.69
2019-05-05T13:34:38.618Z,100248.61
2019-05-05T13:36:46.212Z,100250.21
2019-05-05T13:38:54.561Z,100255.98
2019-05-05T13:41:03.711Z,100244.30
2019-05-05T13:43:11.309Z,100242.63
2019-05-05T13:45:26.795Z,100234.93
2019-05-05T13:47:34.509Z,100246.09
2019-05-05T13:49:43.678Z,100248.87
2019-05-05T13:51:53.927Z,100252.40
2019-05-05T13:54:01.706Z,100254.17
2019-05-05T13:56:12.547Z,100254.25
2019-05-05T13:58:19.333Z,100250.34
2019-05-05T14:00:27.052Z,100254.45
2019-05-05T14:02:34.876Z,100253.23
2019-05-05T14:04:43.802Z,100262.37
2019-05-05T14:06:51.839Z,100262.83
2019-05-05T14:08:59.639Z,100264.39
2019-05-05T14:11:07.251Z,100266.12
2019-05-05T14:13:15.319Z,100263.55
2019-05-05T14:15:24.728Z,100263.16
2019-05-05T14:17:32.439Z,100253.87
2019-05-05T14:19:39.803Z,100271.45
2019-05-05T14:21:47.284Z,100263.16
2019-05-05T14:24:14.371Z,100264.09
2019-05-05T14:26:27.405Z,100266.70
2019-05-05T14:28:31.187Z,100267.91
2019-05-05T14:31:15.934Z,100264.70
2019-05-05T14:33:29.527Z,100255.28
2019-05-05T14:36:01.923Z,100257.52
2019-05-05T14:38:14.579Z,100256.75
2019-05-05T14:40:22.389Z,100252.12
2019-05-05T14:42:29.910Z,100255.39
2019-05-05T14:44:37.626Z,100251.27
2019-05-05T14:46:45.270Z,100251.27
2019-05-05T14:48:53.565Z,100259.58
2019-05-05T14:51:01.149Z,100257.67
2019-05-05T14:53:08.831Z,100255.11
2019-05-05T14:55:17.019Z,100264.23
2019-05-05T14:57:28.600Z,100261.97
2019-05-05T14:59:37.139Z,100260.86
2019-05-05T15:01:45.133Z,100259.73
2019-05-05T15:03:53.536Z,100263.59
2019-05-05T15:06:09.168Z,100258.41
2019-05-05T15:08:38.367Z,100259.02
2019-05-05T15:11:10.620Z,100262.73
2019-05-05T15:13:18.201Z,100260.09
2019-05-05T15:15:25.823Z,100256.02
2019-05-05T15:17:33.744Z,100255.13
2019-05-05T15:19:43.466Z,100255.70
2019-05-05T15:21:50.537Z,100255.56
2019-05-05T15:23:57.977Z,100261.93
2019-05-05T15:26:05.416Z,100262.30
2019-05-05T15:28:13.835Z,100265.01
2019-05-05T15:30:24.914Z,100272.48
2019-05-05T15:32:31.067Z,100267.02
2019-05-05T15:34:38.658Z,100267.04
2019-05-05T15:36:46.098Z,100259.94
2019-05-05T15:38:55.249Z,100255.64
2019-05-05T15:41:03.976Z,100253.13
2019-05-05T15:43:11.582Z,100256.17
2019-05-05T15:45:19.239Z,100253.08
2019-05-05T15:47:27.738Z,100254.55
2019-05-05T15:49:35.180Z,100252.40
2019-05-05T15:51:44.303Z,100259.91
2019-05-05T15:53:54.099Z,100256.98
2019-05-05T15:56:01.275Z,100254.26
2019-05-05T15:58:08.977Z,100261.63
2019-05-05T16:00:18.191Z,100258.77
2019-05-05T16:02:25.742Z,100254.13
2019-05-05T16:04:34.154Z,100248.97
2019-05-05T16:06:41.946Z,100256.61
2019-05-05T16:08:49.839Z,100255.72
2019-05-05T16:10:57.218Z,100253.25
2019-05-05T16:13:04.991Z,100251.88
2019-05-05T16:15:38.391Z,100255.54
2019-05-05T16:17:53.351Z,100253.85
2019-05-05T16:20:25.658Z,100249.89
2019-05-05T16:22:38.927Z,100253.93
2019-05-05T16:24:51.316Z,100245.03
2019-05-05T16:27:00.462Z,100248.30
2019-05-05T16:29:08.458Z,100247.09
2019-05-05T16:31:16.183Z,100245.66
2019-05-05T16:33:24.171Z,100241.53
2019-05-05T16:35:31.845Z,100243.30
2019-05-05T16:37:39.515Z,100246.08
2019-05-05T16:39:47.367Z,100245.94
2019-05-05T16:41:54.861Z,100242.94
2019-05-05T16:44:02.427Z,100247.52
2019-05-05T16:46:10.517Z,100245.83
2019-05-05T16:48:18.276Z,100243.86
2019-05-05T16:50:26.582Z,100245.17
2019-05-05T16:52:40.467Z,100249.12
2019-05-05T16:55:06.760Z,100247.05
2019-05-05T16:57:14.490Z,100247.73
2019-05-05T16:59:23.741Z,100252.53
2019-05-05T17:01:31.370Z,100251.40
2019-05-05T17:03:38.699Z,100243.20
2019-05-05T17:05:46.950Z,100255.91
2019-05-05T17:07:55.829Z,100251.11
2019-05-05T17:10:06.061Z,100259.94
2019-05-05T17:12:14.116Z,100255.43
2019-05-05T17:14:29.089Z,100261.03
2019-05-05T17:16:58.378Z,100259.34
2019-05-05T17:19:17.268Z,100270.38
2019-05-05T17:21:34.106Z,100266.67
2019-05-05T17:23:43.449Z,100261.84
2019-05-05T17:25:53.688Z,100272.09
2019-05-05T17:28:01.372Z,100266.82
2019-05-05T17:30:09.600Z,100265.69
2019-05-05T17:32:17.295Z,100271.40
2019-05-05T17:34:25.289Z,100281.64
2019-05-05T17:36:33.120Z,100279.41
2019-05-05T17:38:40.695Z,100275.60
2019-05-05T17:41:26.025Z,100278.79
2019-05-05T17:43:45.460Z,100280.28
2019-05-05T17:45:57.957Z,100279.98
2019-05-05T17:48:09.699Z,100276.41
2019-05-05T17:50:23.824Z,100278.74
2019-05-05T17:52:53.848Z,100282.00
2019-05-05T17:55:05.075Z,100273.42
2019-05-05T17:57:14.223Z,100275.29
2019-05-05T17:59:23.547Z,100279.23
2019-05-05T18:01:33.476Z,100272.73
2019-05-05T18:03:40.501Z,100283.73
2019-05-05T18:06:09.899Z,100282.97
2019-05-05T18:08:35.014Z,100283.91
2019-05-05T18:10:47.559Z,100287.09
2019-05-05T18:13:26.429Z,100291.66
2019-05-05T18:15:51.524Z,100291.37
2019-05-05T18:17:59.312Z,100300.50
2019-05-05T18:20:07.215Z,100306.01
2019-05-05T18:22:14.602Z,100309.28
2019-05-05T18:24:24.092Z,100306.66
2019-05-05T18:26:31.111Z,100314.09
2019-05-05T18:28:38.617Z,100314.26
2019-05-05T18:30:46.219Z,100307.10
2019-05-05T18:32:53.852Z,100319.36
2019-05-05T18:35:04.485Z,100314.56
2019-05-05T18:37:11.443Z,100313.69
2019-05-05T18:39:18.847Z,100327.76
2019-05-05T18:41:34.464Z,100326.28
2019-05-05T18:43:48.076Z,100316.95
2019-05-05T18:46:04.570Z,100328.73
2019-05-05T18:48:13.972Z,100324.59
2019-05-05T18:50:21.572Z,100322.89
2019-05-05T18:52:28.983Z,100326.99
2019-05-05T18:54:36.394Z,100322.80
2019-05-05T18:56:44.092Z,100332.45
2019-05-05T18:58:54.118Z,100326.26
2019-05-05T19:01:14.510Z,100331.10
2019-05-05T19:03:25.906Z,100333.03
2019-05-05T19:05:57.307Z,100335.28
2019-05-05T19:08:24.458Z,100339.91
2019-05-05T19:10:33.690Z,100332.86
2019-05-05T19:12:41.411Z,100340.39
2019-05-05T19:14:49.375Z,100337.81
2019-05-05T19:16:57.154Z,100339.66
2019-05-05T19:19:04.890Z,100350.16
2019-05-05T19:21:21.565Z,100343.95
2019-05-05T19:23:29.046Z,100346.71
2019-05-05T19:25:36.687Z,100346.97
2019-05-05T19:27:44.812Z,100350.18
2019-05-05T19:29:53.671Z,100348.87
2019-05-05T19:32:01.177Z,100352.55
2019-05-05T19:34:08.767Z,100350.49
2019-05-05T19:36:16.377Z,100346.17
2019-05-05T19:38:24.138Z,100353.20
2019-05-05T19:40:33.794Z,100350.04
2019-05-05T19:42:41.057Z,100344.52
2019-05-05T19:44:48.643Z,100353.70
2019-05-05T19:47:05.891Z,100354.47
2019-05-05T19:49:20.635Z,100356.58
2019-05-05T19:51:28.070Z,100353.13
2019-05-05T19:53:38.323Z,100354.89
2019-05-05T19:55:46.114Z,100357.70
2019-05-05T19:57:54.105Z,100356.97
2019-05-05T20:00:03.817Z,100364.28
2019-05-05T20:02:11.103Z,100356.17
2019-05-05T20:04:18.711Z,100363.34
2019-05-05T20:06:26.485Z,100364.32
2019-05-05T20:08:40.953Z,100360.77
2019-05-05T20:10:44.259Z,100361.28
2019-05-05T20:12:54.031Z,100360.13
2019-05-05T20:15:04.086Z,100350.78
2019-05-05T20:17:17.676Z,100356.31
2019-05-05T20:19:25.243Z,100357.52
2019-05-05T20:21:34.643Z,100353.20
2019-05-05T20:23:43.619Z,100361.73
2019-05-05T20:25:51.198Z,100366.19
2019-05-05T20:27:58.611Z,100363.55
2019-05-05T20:30:09.019Z,100367.68
2019-05-05T20:32:18.769Z,100371.17
2019-05-05T20:34:36.309Z,100376.67
2019-05-05T20:37:04.286Z,100375.20
2019-05-05T20:39:13.868Z,100375.95
2019-05-05T20:41:22.302Z,100373.97
2019-05-05T20:43:30.341Z,100363.90
2019-05-05T20:45:37.976Z,100369.16
2019-05-05T20:47:45.467Z,100371.17
2019-05-05T20:49:53.890Z,100369.08
2019-05-05T20:52:03.563Z,100371.77
2019-05-05T20:54:10.570Z,100371.78
2019-05-05T20:56:18.006Z,100364.88
2019-05-05T20:58:25.312Z,100364.88
2019-05-05T21:00:34.764Z,100361.46
2019-05-05T21:02:43.587Z,100356.88
2019-05-05T21:04:51.160Z,100368.03
2019-05-05T21:06:58.492Z,100367.03
2019-05-05T21:09:08.706Z,100369.86
2019-05-05T21:11:16.354Z,100369.59
2019-05-05T21:13:24.078Z,100366.65
2019-05-05T21:15:33.772Z,100376.23
2019-05-05T21:17:40.884Z,100380.13
2019-05-05T21:19:48.300Z,100377.82
2019-05-05T21:21:57.861Z,100380.50
2019-05-05T21:24:05.526Z,100387.68
2019-05-05T21:26:19.349Z,100380.59
2019-05-05T21:28:26.699Z,100389.30
2019-05-05T21:30:34.222Z,100398.62
2019-05-05T21:32:43.395Z,100391.20
2019-05-05T21:34:50.651Z,100380.63
2019-05-05T21:36:57.930Z,100391.91
2019-05-05T21:39:06.922Z,100389.03
2019-05-05T21:41:14.402Z,100386.84
2019-05-05T21:43:21.884Z,100387.91
2019-05-05T21:45:29.273Z,100388.89
2019-05-05T21:47:36.671Z,100389.17
2019-05-05T21:49:44.067Z,100389.61
2019-05-05T21:52:10.094Z,100383.95
2019-05-05T21:54:34.942Z,100385.48
2019-05-05T21:56:59.015Z,100380.45
2019-05-05T21:59:06.435Z,100386.77
2019-05-05T22:01:27.139Z,100390.18
2019-05-05T22:03:35.553Z,100383.78
2019-05-05T22:05:43.834Z,100388.14
2019-05-05T22:07:51.243Z,100385.00
2019-05-05T22:09:58.970Z,100394.69
2019-05-05T22:12:06.620Z,100397.78
2019-05-05T22:14:14.175Z,100390.00
2019-05-05T22:16:21.504Z,100395.39
2019-05-05T22:18:28.733Z,100390.89
2019-05-05T22:20:44.074Z,100394.27
2019-05-05T22:22:50.825Z,100396.76
2019-05-05T22:24:59.754Z,100397.70
2019-05-05T22:27:07.138Z,100395.03
2019-05-05T22:29:17.110Z,100396.09
2019-05-05T22:31:23.852Z,100394.50
2019-05-05T22:33:31.262Z,100391.26
2019-05-05T22:35:38.592Z,100385.75
2019-05-05T22:37:45.939Z,100380.45
2019-05-05T22:39:54.203Z,100386.50
2019-05-05T22:42:01.740Z,100387.02
2019-05-05T22:44:09.517Z,100384.91
2019-05-05T22:46:16.811Z,100387.02
2019-05-05T22:48:24.108Z,100386.98
2019-05-05T22:50:33.928Z,100390.96
2019-05-05T22:52:40.686Z,100390.58
2019-05-05T22:54:47.925Z,100395.02
2019-05-05T22:56:55.276Z,100391.84
2019-05-05T22:59:04.366Z,100401.59
2019-05-05T23:01:13.546Z,100398.69
2019-05-05T23:03:29.879Z,100395.89
2019-05-05T23:06:11.198Z,100396.16
2019-05-05T23:08:18.789Z,100393.47
2019-05-05T23:10:26.026Z,100399.59
2019-05-05T23:12:35.086Z,100402.45
2019-05-05T23:14:43.702Z,100408.84
2019-05-05T23:16:53.806Z,100405.08
2019-05-05T23:19:02.826Z,100394.06
2019-05-05T23:21:28.711Z,100400.38
2019-05-05T23:23:55.963Z,100396.30
2019-05-05T23:26:04.099Z,100398.88
2019-05-05T23:28:12.319Z,100398.25
2019-05-05T23:30:21.089Z,100393.63
2019-05-05T23:32:28.389Z,100394.46
2019-05-05T23:34:35.690Z,100395.95
2019-05-05T23:36:44.295Z,100400.86
2019-05-05T23:38:51.767Z,100402.17
2019-05-05T23:40:59.249Z,100408.81
2019-05-05T23:43:06.520Z,100408.21
2019-05-05T23:45:13.989Z,100410.03
2019-05-05T23:47:21.247Z,100405.12
2019-05-05T23:49:28.624Z,100413.52
2019-05-05T23:51:36.022Z,100415.05
2019-05-05T23:53:44.471Z,100417.05
2019-05-05T23:55:51.892Z,100413.27
2019-05-05T23:57:59.136Z,100412.75
